createdAt,value
2022-11-29T00:01:41.143Z,24.87
2022-11-29T00:04:08.255Z,30.47
2022-11-29T00:06:36.307Z,30.20
2022-11-29T00:09:11.597Z,26.90
2022-11-29T00:11:58.483Z,27.47
2022-11-29T00:14:27.708Z,25.17
2022-11-29T00:17:02.026Z,24.63
2022-11-29T00:19:34.309Z,37.97
2022-11-29T00:22:02.370Z,27.23
2022-11-29T00:24:31.670Z,28.20
2022-11-29T00:26:58.883Z,27.60
2022-11-29T00:29:25.920Z,29.33
2022-11-29T00:31:53.166Z,26.20
2022-11-29T00:34:20.297Z,27.17
2022-11-29T00:36:47.375Z,28.23
2022-11-29T00:39:16.337Z,31.40
2022-11-29T00:41:43.837Z,29.37
2022-11-29T00:44:15.343Z,30.80
2022-11-29T00:46:45.540Z,29.87
2022-11-29T00:49:12.680Z,26.47
2022-11-29T00:51:39.721Z,24.57
2022-11-29T00:54:06.702Z,29.93
2022-11-29T00:56:33.736Z,28.73
2022-11-29T00:59:00.705Z,25.17
2022-11-29T01:01:27.776Z,30.83
2022-11-29T01:03:54.756Z,26.93
2022-11-29T01:06:21.797Z,26.73
2022-11-29T01:08:49.640Z,29.07
2022-11-29T01:11:26.120Z,25.30
2022-11-29T01:13:59.924Z,28.07
2022-11-29T01:16:29.041Z,28.13
2022-11-29T01:18:56.756Z,23.03
2022-11-29T01:21:24.664Z,31.07
2022-11-29T01:23:52.638Z,29.07
2022-11-29T01:26:23.310Z,25.60
2022-11-29T01:28:52.021Z,27.93
2022-11-29T01:31:24.251Z,28.20
2022-11-29T01:33:58.869Z,29.90
2022-11-29T01:36:26.630Z,28.67
2022-11-29T01:38:54.288Z,36.30
2022-11-29T01:41:26.275Z,28.83
2022-11-29T01:44:13.210Z,27.13
2022-11-29T01:46:44.829Z,31.20
2022-11-29T01:49:27.147Z,29.20
2022-11-29T01:52:06.763Z,28.27
2022-11-29T01:54:38.839Z,24.63
2022-11-29T01:57:07.822Z,28.43
2022-11-29T01:59:38.968Z,31.40
2022-11-29T02:02:12.242Z,26.47
2022-11-29T02:04:42.918Z,27.97
2022-11-29T02:07:10.395Z,29.80
2022-11-29T02:09:37.342Z,27.70
2022-11-29T02:12:35.226Z,29.40
2022-11-29T02:15:26.616Z,24.60
2022-11-29T02:18:14.654Z,26.77
2022-11-29T02:20:54.939Z,28.70
2022-11-29T02:23:54.131Z,31.63
2022-11-29T02:26:39.765Z,33.37
2022-11-29T02:29:12.505Z,28.10
2022-11-29T02:32:07.954Z,28.53
2022-11-29T02:34:56.338Z,27.17
2022-11-29T02:37:43.447Z,32.97
2022-11-29T02:40:25.536Z,26.03
2022-11-29T02:43:14.930Z,28.70
2022-11-29T02:46:08.187Z,26.67
2022-11-29T02:48:38.125Z,25.03
2022-11-29T02:51:17.283Z,27.53
2022-11-29T02:53:59.325Z,30.30
2022-11-29T02:56:45.342Z,31.67
2022-11-29T02:59:45.454Z,27.17
2022-11-29T03:02:26.256Z,28.13
2022-11-29T03:05:15.162Z,29.90
2022-11-29T03:08:00.860Z,27.70
2022-11-29T03:10:49.884Z,26.53
2022-11-29T03:13:36.412Z,28.53
2022-11-29T03:16:22.542Z,30.97
2022-11-29T03:19:15.777Z,28.30
2022-11-29T03:22:11.387Z,29.13
2022-11-29T03:25:03.009Z,24.57
2022-11-29T03:27:48.268Z,26.07
2022-11-29T03:30:18.662Z,28.63
2022-11-29T03:33:13.116Z,33.10
2022-11-29T03:36:13.000Z,25.57
2022-11-29T03:38:43.150Z,27.97
2022-11-29T03:41:16.293Z,30.27
2022-11-29T03:43:59.902Z,27.67
2022-11-29T03:46:52.629Z,26.20
2022-11-29T03:49:40.839Z,29.37
2022-11-29T03:52:24.820Z,28.27
2022-11-29T03:55:29.462Z,25.77
2022-11-29T03:58:15.284Z,30.87
2022-11-29T04:00:48.316Z,28.40
2022-11-29T04:03:47.265Z,29.63
2022-11-29T04:06:42.597Z,27.57
2022-11-29T04:09:34.264Z,30.67
2022-11-29T04:12:08.589Z,31.27
2022-11-29T04:14:44.951Z,28.73
2022-11-29T04:17:29.955Z,29.30
2022-11-29T04:20:24.768Z,28.07
2022-11-29T04:23:09.954Z,26.03
2022-11-29T04:25:39.675Z,29.10
2022-11-29T04:28:27.575Z,27.30
2022-11-29T04:31:15.597Z,31.23
2022-11-29T04:34:20.112Z,30.07
2022-11-29T04:37:05.473Z,29.60
2022-11-29T04:39:49.710Z,28.10
2022-11-29T04:42:41.042Z,29.53
2022-11-29T04:45:29.694Z,29.93
2022-11-29T04:48:33.890Z,28.60
2022-11-29T04:51:25.535Z,29.53
2022-11-29T04:54:08.882Z,33.07
2022-11-29T04:56:51.650Z,29.90
2022-11-29T04:59:23.877Z,31.70
2022-11-29T05:01:59.956Z,31.73
2022-11-29T05:04:34.712Z,32.73
2022-11-29T05:07:16.877Z,29.20
2022-11-29T05:10:11.349Z,28.90
2022-11-29T05:12:48.489Z,35.47
2022-11-29T05:15:33.505Z,30.90
2022-11-29T05:18:39.237Z,32.37
2022-11-29T05:21:25.555Z,28.20
2022-11-29T05:24:30.901Z,31.63
2022-11-29T05:27:24.486Z,29.57
2022-11-29T05:30:01.386Z,32.27
2022-11-29T05:32:52.503Z,33.70
2022-11-29T05:35:50.255Z,31.57
2022-11-29T05:38:41.583Z,32.40
2022-11-29T05:41:46.687Z,33.73
2022-11-29T05:44:19.490Z,32.07
2022-11-29T05:46:54.976Z,35.43
2022-11-29T05:49:50.165Z,38.17
2022-11-29T05:52:55.467Z,32.23
2022-11-29T05:55:22.511Z,33.80
2022-11-29T05:58:46.371Z,30.90
2022-11-29T06:01:22.480Z,30.67
2022-11-29T06:04:10.315Z,30.27
2022-11-29T06:07:04.479Z,31.47
2022-11-29T06:09:44.384Z,40.20
2022-11-29T06:12:21.385Z,34.47
2022-11-29T06:14:55.536Z,33.77
2022-11-29T06:17:39.417Z,35.20
2022-11-29T06:20:54.305Z,34.87
2022-11-29T06:23:48.602Z,31.97
2022-11-29T06:26:39.455Z,37.27
2022-11-29T06:29:43.692Z,33.60
2022-11-29T06:32:28.130Z,32.80
2022-11-29T06:35:02.517Z,34.77
2022-11-29T06:37:50.029Z,32.20
2022-11-29T06:40:17.534Z,37.63
2022-11-29T06:42:44.748Z,35.70
2022-11-29T06:45:13.895Z,35.13
2022-11-29T06:47:46.439Z,36.93
2022-11-29T06:50:13.387Z,34.13
2022-11-29T06:52:45.805Z,38.20
2022-11-29T06:55:22.425Z,35.60
2022-11-29T06:58:22.838Z,39.60
2022-11-29T07:01:10.661Z,37.13
2022-11-29T07:03:55.031Z,35.30
2022-11-29T07:06:27.471Z,29.97
2022-11-29T07:09:00.200Z,36.77
2022-11-29T07:11:28.250Z,37.77
2022-11-29T07:13:55.416Z,34.43
2022-11-29T07:16:46.973Z,36.83
2022-11-29T07:19:13.928Z,43.90
2022-11-29T07:21:49.675Z,34.67
2022-11-29T07:24:45.825Z,37.83
2022-11-29T07:27:33.025Z,41.83
2022-11-29T07:30:14.138Z,38.17
2022-11-29T07:33:00.666Z,39.77
2022-11-29T07:35:36.566Z,36.23
2022-11-29T07:38:29.063Z,36.97
2022-11-29T07:41:21.115Z,33.33
2022-11-29T07:44:05.869Z,36.43
2022-11-29T07:46:32.915Z,35.70
2022-11-29T07:48:59.880Z,36.77
2022-11-29T07:51:26.977Z,39.67
2022-11-29T07:53:54.055Z,30.33
2022-11-29T07:56:21.175Z,33.90
2022-11-29T07:58:48.219Z,33.60
2022-11-29T08:01:15.449Z,33.03
2022-11-29T08:03:42.909Z,40.30
2022-11-29T08:06:09.972Z,33.60
2022-11-29T08:08:43.527Z,37.50
2022-11-29T08:11:14.073Z,34.97
2022-11-29T08:13:41.088Z,38.30
2022-11-29T08:16:08.700Z,34.03
2022-11-29T08:18:38.506Z,35.37
2022-11-29T08:21:07.363Z,35.17
2022-11-29T08:23:34.394Z,34.33
2022-11-29T08:26:03.788Z,34.13
2022-11-29T08:28:30.750Z,34.43
2022-11-29T08:31:02.687Z,33.93
2022-11-29T08:33:30.230Z,34.60
2022-11-29T08:35:57.312Z,32.13
2022-11-29T08:38:24.287Z,33.83
2022-11-29T08:40:51.366Z,36.17
2022-11-29T08:43:18.364Z,33.00
2022-11-29T08:45:45.396Z,39.27
2022-11-29T08:48:14.245Z,31.70
2022-11-29T08:50:41.227Z,35.60
2022-11-29T08:53:27.526Z,34.80
2022-11-29T08:55:58.915Z,35.33
2022-11-29T08:58:26.169Z,36.43
2022-11-29T09:00:53.852Z,32.63
2022-11-29T09:03:39.915Z,32.47
2022-11-29T09:06:12.160Z,34.17
2022-11-29T09:08:43.502Z,26.43
2022-11-29T09:11:21.014Z,28.90
2022-11-29T09:13:50.846Z,18.27
2022-11-29T09:16:20.707Z,20.73
2022-11-29T09:18:52.334Z,19.57
2022-11-29T09:21:19.660Z,17.47
2022-11-29T09:23:46.791Z,21.30
2022-11-29T09:26:20.157Z,17.00
2022-11-29T09:28:47.415Z,18.70
2022-11-29T09:31:15.760Z,16.47
2022-11-29T09:33:42.826Z,19.87
2022-11-29T09:36:11.615Z,17.23
2022-11-29T09:38:39.811Z,17.70
2022-11-29T09:41:25.591Z,18.97
2022-11-29T09:44:08.920Z,19.67
2022-11-29T09:47:00.899Z,18.07
2022-11-29T09:49:39.955Z,17.63
2022-11-29T09:52:43.375Z,20.20
2022-11-29T09:55:22.611Z,18.33
2022-11-29T09:57:50.630Z,17.13
2022-11-29T10:00:21.086Z,20.67
2022-11-29T10:02:57.066Z,21.20
2022-11-29T10:05:31.485Z,17.20
2022-11-29T10:08:32.785Z,18.00
2022-11-29T10:11:14.950Z,20.40
2022-11-29T10:13:48.750Z,15.20
2022-11-29T10:16:23.606Z,19.57
2022-11-29T10:18:58.480Z,19.53
2022-11-29T10:21:30.669Z,17.37
2022-11-29T10:24:11.166Z,17.50
2022-11-29T10:26:38.267Z,20.13
2022-11-29T10:29:05.350Z,16.17
2022-11-29T10:31:35.907Z,15.73
2022-11-29T10:34:13.489Z,16.60
2022-11-29T10:36:45.682Z,15.33
2022-11-29T10:39:32.896Z,16.07
2022-11-29T10:42:06.532Z,16.20
2022-11-29T10:44:33.986Z,17.67
2022-11-29T10:47:10.441Z,16.53
2022-11-29T10:49:40.307Z,16.90
2022-11-29T10:52:19.559Z,19.47
2022-11-29T10:54:48.547Z,16.27
2022-11-29T10:57:18.727Z,20.13
2022-11-29T11:00:09.770Z,15.70
2022-11-29T11:02:37.580Z,23.43
2022-11-29T11:05:18.826Z,21.27
2022-11-29T11:07:47.588Z,16.67
2022-11-29T11:10:26.472Z,18.87
2022-11-29T11:13:18.630Z,16.13
2022-11-29T11:15:45.782Z,16.77
2022-11-29T11:18:21.829Z,15.47
2022-11-29T11:20:56.409Z,17.00
2022-11-29T11:23:25.825Z,15.53
2022-11-29T11:26:07.107Z,17.97
2022-11-29T11:29:04.052Z,16.17
2022-11-29T11:31:34.193Z,15.43
2022-11-29T11:34:24.270Z,19.13
2022-11-29T11:36:51.265Z,18.47
2022-11-29T11:39:23.108Z,18.43
2022-11-29T11:42:10.423Z,16.80
2022-11-29T11:44:49.421Z,20.40
2022-11-29T11:47:57.095Z,17.93
2022-11-29T11:50:31.526Z,18.17
2022-11-29T11:53:05.263Z,17.73
2022-11-29T11:55:39.740Z,15.97
2022-11-29T11:58:12.543Z,18.13
2022-11-29T12:01:03.935Z,18.30
2022-11-29T12:03:56.249Z,19.53
2022-11-29T12:06:36.488Z,16.57
2022-11-29T12:09:09.950Z,19.13
2022-11-29T12:11:42.789Z,18.93
2022-11-29T12:14:31.961Z,16.57
2022-11-29T12:17:19.983Z,14.17
2022-11-29T12:20:12.155Z,16.93
2022-11-29T12:22:53.957Z,16.50
2022-11-29T12:25:29.503Z,19.17
2022-11-29T12:27:56.576Z,18.03
2022-11-29T12:30:23.903Z,19.47
2022-11-29T12:33:18.562Z,20.53
2022-11-29T12:36:06.618Z,17.00
2022-11-29T12:38:58.406Z,15.10
2022-11-29T12:41:52.418Z,17.13
2022-11-29T12:44:35.461Z,17.60
2022-11-29T12:47:34.536Z,14.53
2022-11-29T12:50:05.153Z,13.23
2022-11-29T12:52:42.074Z,15.60
2022-11-29T12:55:21.387Z,14.90
2022-11-29T12:57:54.387Z,14.23
2022-11-29T13:00:22.008Z,12.90
2022-11-29T13:02:54.955Z,13.13
2022-11-29T13:05:51.872Z,16.67
2022-11-29T13:08:37.498Z,14.73
2022-11-29T13:11:26.355Z,13.83
2022-11-29T13:17:28.068Z,15.90
2022-11-29T13:20:13.331Z,14.53
2022-11-29T13:22:50.933Z,15.33
2022-11-29T13:25:51.235Z,16.53
2022-11-29T13:28:35.479Z,14.60
2022-11-29T13:31:07.422Z,15.93
2022-11-29T13:33:55.591Z,13.10
2022-11-29T13:36:42.797Z,16.40
2022-11-29T13:39:47.377Z,15.60
2022-11-29T13:42:32.711Z,19.27
2022-11-29T13:45:35.071Z,16.97
2022-11-29T13:48:35.079Z,16.43
2022-11-29T13:51:41.458Z,17.10
2022-11-29T13:54:32.533Z,16.10
2022-11-29T13:57:07.880Z,15.03
2022-11-29T13:59:38.894Z,18.97
2022-11-29T14:02:29.969Z,15.73
2022-11-29T14:04:57.184Z,15.20
2022-11-29T14:07:24.267Z,15.13
2022-11-29T14:10:03.376Z,17.63
2022-11-29T14:12:37.718Z,15.40
2022-11-29T14:15:23.262Z,17.23
2022-11-29T14:17:51.941Z,17.10
2022-11-29T14:20:30.450Z,14.70
2022-11-29T14:23:06.612Z,14.53
2022-11-29T14:25:51.494Z,17.63
2022-11-29T14:28:21.956Z,15.13
2022-11-29T14:30:54.430Z,14.50
2022-11-29T14:34:01.962Z,14.63
2022-11-29T14:37:05.590Z,15.83
2022-11-29T14:39:48.418Z,16.13
2022-11-29T14:42:19.538Z,15.53
2022-11-29T14:45:04.681Z,14.37
2022-11-29T14:47:35.606Z,14.20
2022-11-29T14:50:06.758Z,16.43
2022-11-29T14:52:39.913Z,15.03
2022-11-29T14:55:07.286Z,16.60
2022-11-29T14:57:53.560Z,20.20
2022-11-29T15:00:23.465Z,15.00
2022-11-29T15:02:50.547Z,16.10
2022-11-29T15:05:32.624Z,16.20
2022-11-29T15:08:15.193Z,14.63
2022-11-29T15:11:02.832Z,19.83
2022-11-29T15:13:32.882Z,16.33
2022-11-29T15:16:36.870Z,15.30
2022-11-29T15:19:13.308Z,15.77
2022-11-29T15:22:06.512Z,16.73
2022-11-29T15:24:53.973Z,15.67
2022-11-29T15:27:22.122Z,15.50
2022-11-29T15:29:49.347Z,18.00
2022-11-29T15:32:32.642Z,15.70
2022-11-29T15:35:00.223Z,17.47
2022-11-29T15:37:36.625Z,14.60
2022-11-29T15:40:18.354Z,15.50
2022-11-29T15:43:05.145Z,15.90
2022-11-29T15:45:33.516Z,18.93
2022-11-29T15:48:21.830Z,17.90
2022-11-29T15:51:24.289Z,18.80
2022-11-29T15:54:11.657Z,21.70
2022-11-29T15:56:56.314Z,18.43
2022-11-29T15:59:32.589Z,20.60
2022-11-29T16:02:07.809Z,21.57
2022-11-29T16:04:43.529Z,24.03
2022-11-29T16:07:13.999Z,23.37
2022-11-29T16:09:44.308Z,19.73
2022-11-29T16:12:16.695Z,23.03
2022-11-29T16:14:56.565Z,20.53
2022-11-29T16:17:33.771Z,21.13
2022-11-29T16:20:16.724Z,21.40
2022-11-29T16:22:43.690Z,19.50
2022-11-29T16:25:19.442Z,19.03
2022-11-29T16:27:47.631Z,21.23
2022-11-29T16:30:22.833Z,19.37
2022-11-29T16:32:54.598Z,20.20
2022-11-29T16:35:25.155Z,18.03
2022-11-29T16:37:52.315Z,18.27
2022-11-29T16:40:23.833Z,19.67
2022-11-29T16:43:18.420Z,18.60
2022-11-29T16:45:46.853Z,19.87
2022-11-29T16:48:22.954Z,22.80
2022-11-29T16:51:12.525Z,22.17
2022-11-29T16:53:51.774Z,20.30
2022-11-29T16:56:29.090Z,20.07
2022-11-29T16:59:20.827Z,21.37
2022-11-29T17:01:48.950Z,24.13
2022-11-29T17:04:24.053Z,21.60
2022-11-29T17:06:55.989Z,23.00
2022-11-29T17:09:28.575Z,23.77
2022-11-29T17:11:56.722Z,22.90
2022-11-29T17:14:23.821Z,21.03
2022-11-29T17:16:52.037Z,21.53
2022-11-29T17:19:24.142Z,21.07
2022-11-29T17:21:52.697Z,22.97
2022-11-29T17:24:21.915Z,19.23
2022-11-29T17:26:49.708Z,21.67
2022-11-29T17:29:18.172Z,18.47
2022-11-29T17:31:46.840Z,21.77
2022-11-29T17:34:14.270Z,21.77
2022-11-29T17:36:41.600Z,23.43
2022-11-29T17:39:08.958Z,20.70
2022-11-29T17:41:36.069Z,21.33
2022-11-29T17:44:03.371Z,23.43
2022-11-29T17:46:35.450Z,24.10
2022-11-29T17:49:06.056Z,22.73
2022-11-29T17:54:24.496Z,22.37
2022-11-29T17:56:51.943Z,24.23
2022-11-29T17:59:19.058Z,25.63
2022-11-29T18:01:47.479Z,21.20
2022-11-29T18:04:14.762Z,23.83
2022-11-29T18:06:42.104Z,21.43
2022-11-29T18:09:10.575Z,27.30
2022-11-29T18:11:48.986Z,26.77
2022-11-29T18:14:24.173Z,23.67
2022-11-29T18:16:51.916Z,22.20
2022-11-29T18:19:22.058Z,21.70
2022-11-29T18:21:50.096Z,26.17
2022-11-29T18:24:17.932Z,23.53
2022-11-29T18:26:45.097Z,23.07
2022-11-29T18:29:12.277Z,21.47
2022-11-29T18:31:41.804Z,25.43
2022-11-29T18:34:10.461Z,23.33
2022-11-29T18:36:42.855Z,25.63
2022-11-29T18:39:14.111Z,22.77
2022-11-29T18:41:43.492Z,27.70
2022-11-29T18:44:13.044Z,26.67
2022-11-29T18:46:41.665Z,27.93
2022-11-29T18:49:10.488Z,24.13
2022-11-29T18:51:38.396Z,25.93
2022-11-29T18:54:06.330Z,24.97
2022-11-29T18:56:34.943Z,27.63
2022-11-29T18:59:04.665Z,25.43
2022-11-29T19:01:34.368Z,24.67
2022-11-29T19:04:02.048Z,22.77
2022-11-29T19:06:38.937Z,28.03
2022-11-29T19:09:08.367Z,25.43
2022-11-29T19:11:35.477Z,25.17
2022-11-29T19:14:05.257Z,27.77
2022-11-29T19:16:34.389Z,25.90
2022-11-29T19:19:02.147Z,31.40
2022-11-29T19:21:34.670Z,29.17
2022-11-29T19:24:04.357Z,23.83
2022-11-29T19:26:32.680Z,29.77
2022-11-29T19:29:01.085Z,28.97
2022-11-29T19:31:28.733Z,29.33
2022-11-29T19:33:57.125Z,27.53
2022-11-29T19:36:33.245Z,29.53
2022-11-29T19:39:01.677Z,30.67
2022-11-29T19:41:31.688Z,34.63
2022-11-29T19:44:01.831Z,32.20
2022-11-29T19:46:35.507Z,33.40
2022-11-29T19:49:04.143Z,25.20
2022-11-29T19:51:32.087Z,31.10
2022-11-29T19:54:02.232Z,29.20
2022-11-29T19:56:31.053Z,31.53
2022-11-29T19:59:00.023Z,29.03
2022-11-29T20:01:37.851Z,32.90
2022-11-29T20:04:07.582Z,30.93
2022-11-29T20:06:34.768Z,31.60
2022-11-29T20:09:02.271Z,31.77
2022-11-29T20:11:29.743Z,30.77
2022-11-29T20:14:01.882Z,33.03
2022-11-29T20:16:30.272Z,34.73
2022-11-29T20:18:58.566Z,32.17
2022-11-29T20:21:28.440Z,30.80
2022-11-29T20:23:57.827Z,35.80
2022-11-29T20:26:25.420Z,34.30
2022-11-29T20:28:52.574Z,31.43
2022-11-29T20:31:22.992Z,34.23
2022-11-29T20:33:53.065Z,34.50
2022-11-29T20:36:31.550Z,29.70
2022-11-29T20:39:22.383Z,34.57
2022-11-29T20:42:01.376Z,34.87
2022-11-29T20:44:40.056Z,39.00
2022-11-29T20:47:19.022Z,33.97
2022-11-29T20:49:47.032Z,37.53
2022-11-29T20:52:48.605Z,38.03
2022-11-29T20:55:15.737Z,33.73
2022-11-29T20:57:42.785Z,38.60
2022-11-29T21:00:12.454Z,40.10
2022-11-29T21:02:39.955Z,34.40
2022-11-29T21:05:07.438Z,34.80
2022-11-29T21:07:34.743Z,37.80
2022-11-29T21:10:02.175Z,40.47
2022-11-29T21:12:30.378Z,39.83
2022-11-29T21:14:58.213Z,39.60
2022-11-29T21:17:30.224Z,31.17
2022-11-29T21:19:59.130Z,37.73
2022-11-29T21:23:06.709Z,38.40
2022-11-29T21:25:52.324Z,34.50
2022-11-29T21:28:20.203Z,36.57
2022-11-29T21:30:47.598Z,35.43
2022-11-29T21:33:14.770Z,33.57
2022-11-29T21:35:42.093Z,38.70
2022-11-29T21:38:13.584Z,32.70
2022-11-29T21:40:40.823Z,35.73
2022-11-29T21:43:07.838Z,32.20
2022-11-29T21:45:34.931Z,37.93
2022-11-29T21:48:01.963Z,34.47
2022-11-29T21:50:29.164Z,38.43
2022-11-29T21:52:56.362Z,35.47
2022-11-29T21:55:31.415Z,47.10
2022-11-29T21:57:59.186Z,33.77
2022-11-29T22:00:26.288Z,36.80
2022-11-29T22:02:53.549Z,37.83
2022-11-29T22:05:20.666Z,35.47
2022-11-29T22:07:47.790Z,36.43
2022-11-29T22:10:14.891Z,39.37
2022-11-29T22:12:51.188Z,34.23
2022-11-29T22:15:24.601Z,34.63
2022-11-29T22:17:53.653Z,38.50
2022-11-29T22:20:20.870Z,35.27
2022-11-29T22:22:48.674Z,41.37
2022-11-29T22:25:16.423Z,34.70
2022-11-29T22:27:43.378Z,37.07
2022-11-29T22:30:10.830Z,38.03
2022-11-29T22:32:38.079Z,42.53
2022-11-29T22:35:06.932Z,40.33
2022-11-29T22:37:33.996Z,38.47
2022-11-29T22:40:01.061Z,38.83
2022-11-29T22:42:28.063Z,39.03
2022-11-29T22:44:55.281Z,42.40
2022-11-29T22:47:22.329Z,45.10
2022-11-29T22:49:49.682Z,36.73
2022-11-29T22:52:16.821Z,40.73
2022-11-29T22:54:45.312Z,42.60
2022-11-29T22:57:12.645Z,43.43
2022-11-29T22:59:39.725Z,38.30
2022-11-29T23:02:06.795Z,41.67
2022-11-29T23:04:33.869Z,41.53
2022-11-29T23:07:00.800Z,39.60
2022-11-29T23:09:27.777Z,38.33
2022-11-29T23:11:56.376Z,38.43
2022-11-29T23:14:23.844Z,35.67
2022-11-29T23:16:51.764Z,39.07
2022-11-29T23:19:19.248Z,38.67
2022-11-29T23:21:46.555Z,36.73
2022-11-29T23:24:15.407Z,38.13
2022-11-29T23:26:46.386Z,42.53
2022-11-29T23:29:16.847Z,37.93
2022-11-29T23:31:44.618Z,40.57
2022-11-29T23:34:11.792Z,41.53
2022-11-29T23:36:38.951Z,40.03
2022-11-29T23:39:06.882Z,40.77
2022-11-29T23:41:35.740Z,38.73
2022-11-29T23:44:06.611Z,42.07
2022-11-29T23:46:35.049Z,35.87
2022-11-29T23:49:02.323Z,39.80
2022-11-29T23:51:29.997Z,37.23
2022-11-29T23:53:57.086Z,38.03
2022-11-29T23:56:24.119Z,37.77
2022-11-29T23:58:51.158Z,44.67
